Time;durP1;ratioP1;P1;durP2;ratioP2;P2;SDS_P1;SDS_P2;PMS_P1;PMS_P2;Temp;Humidity;BMP_temperature;BMP_pressure;BME280_temperature;BME280_humidity;BME280_pressure;Samples;Min_cycle;Max_cycle;Signal;HPM_P1;HPM_P2
2022/07/24 00:01:49;;;;;;;4.63;3.58;;;;;;;;;;4993447;28;20047;-66
2022/07/24 00:04:15;;;;;;;6.53;3.65;;;;;;;;;;4993057;28;20523;-66
2022/07/24 00:06:41;;;;;;;5.40;4.20;;;;;;;;;;4993784;28;20067;-66
2022/07/24 00:09:08;;;;;;;5.82;3.67;;;;;;;;;;4993252;28;20049;-66
2022/07/24 00:11:34;;;;;;;4.70;4.13;;;;;;;;;;4993943;28;20129;-66
2022/07/24 00:14:00;;;;;;;5.80;4.07;;;;;;;;;;4993677;28;20050;-66
2022/07/24 00:16:26;;;;;;;4.85;4.38;;;;;;;;;;4993353;28;20510;-66
2022/07/24 00:18:52;;;;;;;7.85;4.57;;;;;;;;;;4993672;28;20046;-66
2022/07/24 00:21:18;;;;;;;5.28;4.65;;;;;;;;;;4993567;28;20089;-66
2022/07/24 00:23:44;;;;;;;6.55;4.45;;;;;;;;;;4993235;28;20506;-66
2022/07/24 00:26:11;;;;;;;7.07;5.43;;;;;;;;;;4993096;28;20074;-66
2022/07/24 00:28:37;;;;;;;8.43;5.32;;;;;;;;;;4993538;28;20117;-66
2022/07/24 00:31:03;;;;;;;5.60;4.95;;;;;;;;;;4975535;28;20573;-66
2022/07/24 00:33:29;;;;;;;6.32;5.50;;;;;;;;;;4993457;28;20539;-66
2022/07/24 00:35:55;;;;;;;5.80;5.20;;;;;;;;;;4975793;28;20089;-66
2022/07/24 00:38:21;;;;;;;9.15;5.65;;;;;;;;;;4993317;28;20058;-66
2022/07/24 00:40:47;;;;;;;5.65;5.15;;;;;;;;;;4992763;28;20038;-66
2022/07/24 00:43:16;;;;;;;7.55;5.68;;;;;;;;;;4993257;28;20042;-66
2022/07/24 00:45:42;;;;;;;6.30;5.50;;;;;;;;;;4975503;28;20440;-66
2022/07/24 00:48:08;;;;;;;7.75;5.60;;;;;;;;;;4992161;28;20058;-66
2022/07/24 00:50:34;;;;;;;6.65;5.65;;;;;;;;;;4993169;28;20046;-66
2022/07/24 00:53:00;;;;;;;6.40;5.80;;;;;;;;;;4992747;28;20053;-66
2022/07/24 00:55:27;;;;;;;6.85;6.15;;;;;;;;;;4992255;28;20050;-66
2022/07/24 00:57:53;;;;;;;7.82;6.25;;;;;;;;;;4993120;28;20569;-66
2022/07/24 01:00:20;;;;;;;8.85;6.65;;;;;;;;;;4992946;28;20053;-66
2022/07/24 01:02:46;;;;;;;7.35;6.63;;;;;;;;;;4974852;28;20039;-66
2022/07/24 01:05:13;;;;;;;8.68;7.03;;;;;;;;;;4992576;28;20125;-66
2022/07/24 01:07:39;;;;;;;9.55;6.90;;;;;;;;;;4992331;28;20081;-66
2022/07/24 01:10:06;;;;;;;10.88;7.43;;;;;;;;;;4992381;28;20182;-66
2022/07/24 01:12:33;;;;;;;9.85;7.20;;;;;;;;;;4992770;28;20472;-66
2022/07/24 01:14:59;;;;;;;8.30;7.32;;;;;;;;;;4991775;28;20139;-66
2022/07/24 01:17:29;;;;;;;8.48;7.00;;;;;;;;;;4991922;28;20054;-66
2022/07/24 01:19:55;;;;;;;8.15;7.45;;;;;;;;;;4992708;28;20477;-66
2022/07/24 01:22:21;;;;;;;12.63;8.07;;;;;;;;;;4992578;28;20054;-66
2022/07/24 01:24:48;;;;;;;12.00;7.70;;;;;;;;;;4992160;28;20377;-66
2022/07/24 01:27:14;;;;;;;11.02;8.13;;;;;;;;;;4974670;28;20445;-66
2022/07/24 01:29:40;;;;;;;9.75;8.02;;;;;;;;;;4992251;28;20129;-66
2022/07/24 01:32:06;;;;;;;9.63;8.25;;;;;;;;;;4992112;28;20479;-66
2022/07/24 01:34:32;;;;;;;10.73;8.60;;;;;;;;;;4992370;28;20530;-66
2022/07/24 01:36:59;;;;;;;9.38;8.40;;;;;;;;;;4992299;28;20050;-66
2022/07/24 01:39:25;;;;;;;10.85;7.95;;;;;;;;;;4992011;28;20049;-66
2022/07/24 01:41:51;;;;;;;9.25;8.15;;;;;;;;;;4991824;28;20078;-66
2022/07/24 01:44:17;;;;;;;10.88;8.38;;;;;;;;;;4991944;28;20038;-66
2022/07/24 01:46:43;;;;;;;13.07;8.25;;;;;;;;;;4973790;28;20081;-66
2022/07/24 01:49:09;;;;;;;8.82;7.93;;;;;;;;;;4992132;28;20077;-66
2022/07/24 01:51:35;;;;;;;11.70;8.52;;;;;;;;;;4991880;28;20050;-66
2022/07/24 01:54:02;;;;;;;11.68;8.55;;;;;;;;;;4991799;28;20101;-66
2022/07/24 01:56:29;;;;;;;9.73;8.70;;;;;;;;;;4992069;28;20046;-66
2022/07/24 01:58:55;;;;;;;9.70;7.75;;;;;;;;;;4992022;28;20097;-66
2022/07/24 02:01:21;;;;;;;10.15;8.68;;;;;;;;;;4991673;28;20049;-66
2022/07/24 02:03:48;;;;;;;9.07;8.10;;;;;;;;;;4992139;28;20034;-66
2022/07/24 02:06:14;;;;;;;12.48;8.65;;;;;;;;;;4992001;28;20038;-66
2022/07/24 02:08:40;;;;;;;9.43;8.43;;;;;;;;;;4974042;28;20042;-66
2022/07/24 02:11:06;;;;;;;9.48;8.25;;;;;;;;;;4991731;28;20517;-66
2022/07/24 02:13:32;;;;;;;9.73;7.75;;;;;;;;;;4992060;28;20094;-66
2022/07/24 02:15:58;;;;;;;9.80;7.60;;;;;;;;;;4991464;28;20084;-66
2022/07/24 02:18:24;;;;;;;10.65;7.80;;;;;;;;;;4992067;28;20043;-66
2022/07/24 02:20:50;;;;;;;11.35;8.13;;;;;;;;;;4992125;28;20042;-66
2022/07/24 02:23:20;;;;;;;9.27;7.18;;;;;;;;;;4991210;28;20053;-66
2022/07/24 02:25:47;;;;;;;10.02;8.30;;;;;;;;;;4991592;28;20045;-66
2022/07/24 02:28:13;;;;;;;9.38;7.57;;;;;;;;;;4995805;28;20034;-66
2022/07/24 02:30:39;;;;;;;8.50;7.55;;;;;;;;;;4995427;28;20074;-66
2022/07/24 02:33:05;;;;;;;9.15;8.18;;;;;;;;;;4995810;28;20053;-66
2022/07/24 02:35:31;;;;;;;7.93;7.15;;;;;;;;;;4995646;28;20405;-66
2022/07/24 02:37:57;;;;;;;12.30;7.40;;;;;;;;;;4995172;28;20046;-66
2022/07/24 02:40:23;;;;;;;8.75;7.25;;;;;;;;;;4995581;28;20057;-66
2022/07/24 02:42:50;;;;;;;10.13;7.50;;;;;;;;;;4995430;28;20049;-66
2022/07/24 02:45:17;;;;;;;8.20;7.38;;;;;;;;;;4994974;28;20035;-66
2022/07/24 02:47:50;;;;;;;8.82;7.00;;;;;;;;;;4994929;28;20069;-66
2022/07/24 02:50:17;;;;;;;8.93;6.95;;;;;;;;;;4977610;28;20054;-66
2022/07/24 02:52:43;;;;;;;8.02;7.22;;;;;;;;;;4995066;28;20042;-66
2022/07/24 02:55:09;;;;;;;8.60;7.10;;;;;;;;;;4994921;28;20049;-66
2022/07/24 02:57:35;;;;;;;8.93;7.10;;;;;;;;;;4995048;28;20042;-66
2022/07/24 03:00:03;;;;;;;10.20;7.13;;;;;;;;;;4994768;28;20049;-66
2022/07/24 03:02:29;;;;;;;7.32;6.63;;;;;;;;;;4995170;28;20034;-66
2022/07/24 03:04:55;;;;;;;8.57;7.38;;;;;;;;;;4995123;28;20385;-66
2022/07/24 03:07:21;;;;;;;9.43;6.80;;;;;;;;;;4994510;28;20042;-66
2022/07/24 03:09:47;;;;;;;7.82;6.65;;;;;;;;;;4995022;28;20121;-66
2022/07/24 03:12:13;;;;;;;9.93;7.50;;;;;;;;;;4995031;28;20043;-66
2022/07/24 03:14:39;;;;;;;7.82;6.75;;;;;;;;;;4994493;28;20042;-66
2022/07/24 03:17:05;;;;;;;10.00;7.43;;;;;;;;;;4994878;28;20362;-66
2022/07/24 03:19:31;;;;;;;8.07;6.90;;;;;;;;;;4994995;28;20046;-66
2022/07/24 03:21:57;;;;;;;7.05;6.35;;;;;;;;;;4977162;28;20096;-66
2022/07/24 03:24:23;;;;;;;9.63;7.45;;;;;;;;;;4994970;28;20125;-66
2022/07/24 03:26:49;;;;;;;11.10;7.57;;;;;;;;;;4994467;28;20440;-66
2022/07/24 03:29:15;;;;;;;9.85;6.80;;;;;;;;;;4994011;28;20049;-66
2022/07/24 03:31:42;;;;;;;9.73;7.10;;;;;;;;;;4994664;28;20048;-66
2022/07/24 03:34:08;;;;;;;8.18;6.95;;;;;;;;;;4994184;28;20046;-66
2022/07/24 03:36:35;;;;;;;9.73;7.60;;;;;;;;;;4994128;28;20042;-66
2022/07/24 03:39:01;;;;;;;9.82;7.45;;;;;;;;;;4993208;28;20085;-66
2022/07/24 03:41:27;;;;;;;9.00;7.13;;;;;;;;;;4994319;28;20064;-66
2022/07/24 03:43:53;;;;;;;9.65;7.22;;;;;;;;;;4994170;28;20517;-66
2022/07/24 03:46:19;;;;;;;8.32;7.07;;;;;;;;;;4993827;28;20133;-66
2022/07/24 03:48:45;;;;;;;8.82;7.22;;;;;;;;;;4976552;28;20121;-66
2022/07/24 03:51:11;;;;;;;10.77;7.50;;;;;;;;;;4993462;28;20501;-66
2022/07/24 03:53:37;;;;;;;9.13;7.82;;;;;;;;;;4994026;28;20038;-66
2022/07/24 03:56:07;;;;;;;10.85;6.95;;;;;;;;;;4993968;28;20046;-66
2022/07/24 03:58:33;;;;;;;9.43;7.57;;;;;;;;;;4993851;28;20072;-66
2022/07/24 04:00:59;;;;;;;8.55;6.45;;;;;;;;;;4993798;28;20524;-66
2022/07/24 04:03:25;;;;;;;10.90;7.03;;;;;;;;;;4976301;28;20042;-66
2022/07/24 04:05:51;;;;;;;8.38;7.05;;;;;;;;;;4993260;28;20046;-66
2022/07/24 04:08:17;;;;;;;9.70;6.88;;;;;;;;;;4993675;28;20096;-66
2022/07/24 04:10:43;;;;;;;8.82;7.03;;;;;;;;;;4993746;28;20038;-66
2022/07/24 04:13:09;;;;;;;8.90;7.10;;;;;;;;;;4992985;28;20046;-66
2022/07/24 04:15:35;;;;;;;9.77;6.63;;;;;;;;;;4993817;28;20046;-66
2022/07/24 04:18:01;;;;;;;10.68;7.63;;;;;;;;;;4993704;28;20504;-66
2022/07/24 04:20:27;;;;;;;10.80;6.97;;;;;;;;;;4993351;28;20050;-66
2022/07/24 04:22:53;;;;;;;9.27;6.97;;;;;;;;;;4993652;28;20485;-66
2022/07/24 04:25:20;;;;;;;9.85;7.20;;;;;;;;;;4993492;28;20093;-66
2022/07/24 04:27:47;;;;;;;8.43;6.72;;;;;;;;;;4993312;28;20034;-66
2022/07/24 04:30:13;;;;;;;9.05;6.40;;;;;;;;;;4993576;28;20049;-66
2022/07/24 04:32:40;;;;;;;10.00;7.30;;;;;;;;;;4993204;28;20046;-66
2022/07/24 04:35:06;;;;;;;8.05;6.93;;;;;;;;;;4993393;28;20471;-66
2022/07/24 04:37:32;;;;;;;9.18;6.78;;;;;;;;;;4992540;28;20067;-66
2022/07/24 04:39:58;;;;;;;10.30;7.00;;;;;;;;;;4993349;28;20085;-66
2022/07/24 04:42:24;;;;;;;6.90;6.20;;;;;;;;;;4992891;28;20050;-66
2022/07/24 04:44:50;;;;;;;9.27;6.85;;;;;;;;;;4992996;28;20042;-66
2022/07/24 04:47:16;;;;;;;8.52;7.10;;;;;;;;;;4992674;28;20057;-66
2022/07/24 04:49:42;;;;;;;9.02;6.43;;;;;;;;;;4992582;28;20100;-66
2022/07/24 04:52:08;;;;;;;9.05;6.38;;;;;;;;;;4992464;28;20050;-66
2022/07/24 04:54:34;;;;;;;10.65;6.63;;;;;;;;;;4993135;28;20046;-66
2022/07/24 04:57:00;;;;;;;8.85;6.88;;;;;;;;;;4992844;28;20050;-66
2022/07/24 04:59:27;;;;;;;8.52;6.43;;;;;;;;;;4992604;28;20046;-66
2022/07/24 05:01:53;;;;;;;8.43;6.72;;;;;;;;;;4992864;28;20092;-66
2022/07/24 05:04:19;;;;;;;10.10;7.05;;;;;;;;;;4992918;28;20469;-66
2022/07/24 05:06:46;;;;;;;10.93;7.38;;;;;;;;;;4991973;28;20042;-66
2022/07/24 05:09:13;;;;;;;7.75;6.45;;;;;;;;;;4992854;28;20097;-66
2022/07/24 05:11:39;;;;;;;6.88;6.18;;;;;;;;;;4992849;28;20057;-66
2022/07/24 05:14:05;;;;;;;9.25;7.18;;;;;;;;;;4992335;28;20042;-66
2022/07/24 05:16:31;;;;;;;8.70;6.45;;;;;;;;;;4992499;28;20633;-66
2022/07/24 05:18:57;;;;;;;10.45;6.97;;;;;;;;;;4992636;28;20038;-66
2022/07/24 05:21:23;;;;;;;9.88;6.90;;;;;;;;;;4991748;28;20068;-66
2022/07/24 05:23:49;;;;;;;9.95;6.78;;;;;;;;;;4992593;28;20038;-66
2022/07/24 05:26:15;;;;;;;10.88;7.53;;;;;;;;;;4992267;28;20116;-66
2022/07/24 05:28:41;;;;;;;9.90;7.50;;;;;;;;;;4992269;28;20480;-66
2022/07/24 05:31:08;;;;;;;8.95;7.88;;;;;;;;;;4992687;28;20125;-66
2022/07/24 05:33:34;;;;;;;8.13;7.00;;;;;;;;;;4992332;28;20047;-66
2022/07/24 05:36:00;;;;;;;10.98;7.95;;;;;;;;;;4991865;28;20537;-66
2022/07/24 05:38:26;;;;;;;9.75;8.05;;;;;;;;;;4992373;28;20038;-66
2022/07/24 05:40:52;;;;;;;11.70;7.78;;;;;;;;;;4992383;28;20049;-66
2022/07/24 05:43:18;;;;;;;12.45;8.65;;;;;;;;;;4991936;28;20129;-66
2022/07/24 05:45:45;;;;;;;9.82;7.28;;;;;;;;;;4992246;28;20100;-66
2022/07/24 05:48:11;;;;;;;10.73;8.88;;;;;;;;;;4991873;28;20101;-66
2022/07/24 05:50:37;;;;;;;11.07;7.80;;;;;;;;;;4991819;28;20449;-66
2022/07/24 05:53:03;;;;;;;12.50;9.05;;;;;;;;;;4992236;28;20046;-66
2022/07/24 05:55:29;;;;;;;14.23;9.10;;;;;;;;;;4992117;28;20042;-66
2022/07/24 05:57:55;;;;;;;12.85;8.88;;;;;;;;;;4991686;28;20134;-66
2022/07/24 06:00:22;;;;;;;11.65;8.82;;;;;;;;;;4992263;28;20046;-66
2022/07/24 06:02:48;;;;;;;11.70;9.23;;;;;;;;;;4995552;28;20061;-66
2022/07/24 06:05:14;;;;;;;13.50;8.80;;;;;;;;;;4995780;28;20445;-66
2022/07/24 06:07:41;;;;;;;10.10;9.00;;;;;;;;;;4996019;28;20092;-66
2022/07/24 06:10:07;;;;;;;13.27;9.77;;;;;;;;;;4996145;28;20038;-66
2022/07/24 06:12:33;;;;;;;13.75;9.73;;;;;;;;;;4995818;28;20434;-66
2022/07/24 06:14:59;;;;;;;13.80;10.80;;;;;;;;;;4996060;28;20480;-66
2022/07/24 06:17:25;;;;;;;17.50;10.35;;;;;;;;;;4995853;28;20043;-66
2022/07/24 06:19:51;;;;;;;18.45;12.02;;;;;;;;;;4995653;28;20046;-66
2022/07/24 06:22:17;;;;;;;15.10;11.52;;;;;;;;;;4995478;28;20181;-66
2022/07/24 06:24:43;;;;;;;16.27;11.50;;;;;;;;;;4995952;28;20133;-66
2022/07/24 06:27:09;;;;;;;15.65;11.82;;;;;;;;;;4995292;28;20038;-66
2022/07/24 06:29:35;;;;;;;14.98;11.00;;;;;;;;;;4995462;28;20034;-66
2022/07/24 06:32:01;;;;;;;14.55;11.68;;;;;;;;;;4995714;28;20092;-66
2022/07/24 06:34:28;;;;;;;18.15;12.48;;;;;;;;;;4995230;28;20046;-66
2022/07/24 06:36:54;;;;;;;14.43;11.38;;;;;;;;;;4995464;28;20045;-66
2022/07/24 06:39:20;;;;;;;14.48;11.15;;;;;;;;;;4995646;28;20042;-66
2022/07/24 06:41:46;;;;;;;18.30;12.50;;;;;;;;;;4994945;28;20061;-66
2022/07/24 06:44:12;;;;;;;15.77;12.68;;;;;;;;;;4995686;28;20117;-66
2022/07/24 06:46:38;;;;;;;17.27;13.07;;;;;;;;;;4995074;28;20054;-66
2022/07/24 06:49:04;;;;;;;15.55;11.57;;;;;;;;;;4977594;28;20054;-66
2022/07/24 06:51:30;;;;;;;17.17;12.00;;;;;;;;;;4995369;28;20049;-66
2022/07/24 06:53:56;;;;;;;17.48;12.45;;;;;;;;;;4995037;28;20043;-66
2022/07/24 06:56:22;;;;;;;14.70;12.85;;;;;;;;;;4994571;28;20047;-66
2022/07/24 06:58:48;;;;;;;19.92;12.98;;;;;;;;;;4995294;28;20038;-66
2022/07/24 07:01:14;;;;;;;15.15;12.02;;;;;;;;;;4994914;28;20046;-66
2022/07/24 07:03:42;;;;;;;14.63;11.70;;;;;;;;;;4994778;28;20050;-66
2022/07/24 07:06:08;;;;;;;19.30;15.00;;;;;;;;;;4995037;28;20386;-66
2022/07/24 07:08:34;;;;;;;16.83;12.93;;;;;;;;;;4995083;28;20476;-66
2022/07/24 07:11:00;;;;;;;19.42;13.68;;;;;;;;;;4977329;28;20042;-66
2022/07/24 07:13:26;;;;;;;20.63;14.73;;;;;;;;;;4995134;28;20583;-66
2022/07/24 07:15:53;;;;;;;19.98;13.00;;;;;;;;;;4994954;28;20039;-66
2022/07/24 07:18:19;;;;;;;19.73;12.65;;;;;;;;;;4994612;28;20081;-66
2022/07/24 07:20:45;;;;;;;19.52;13.02;;;;;;;;;;4994932;28;20047;-66
2022/07/24 07:23:11;;;;;;;19.15;12.70;;;;;;;;;;4976918;28;20038;-66
2022/07/24 07:25:37;;;;;;;14.73;11.85;;;;;;;;;;4994314;28;20077;-66
2022/07/24 07:28:03;;;;;;;19.35;11.77;;;;;;;;;;4994625;28;20053;-66
2022/07/24 07:30:29;;;;;;;16.63;11.68;;;;;;;;;;4994725;28;20030;-66
2022/07/24 07:32:55;;;;;;;18.98;11.95;;;;;;;;;;4994329;28;20636;-66
2022/07/24 07:35:22;;;;;;;16.02;11.52;;;;;;;;;;4977123;28;20049;-66
2022/07/24 07:37:49;;;;;;;16.23;11.68;;;;;;;;;;4994381;28;20069;-66
2022/07/24 07:40:15;;;;;;;18.88;11.40;;;;;;;;;;4994305;28;20050;-66
2022/07/24 07:42:41;;;;;;;18.77;10.73;;;;;;;;;;4994464;28;20732;-66
2022/07/24 07:45:07;;;;;;;14.75;9.43;;;;;;;;;;4994244;28;20077;-66
2022/07/24 07:47:36;;;;;;;13.43;10.18;;;;;;;;;;4993896;28;20061;-66
2022/07/24 07:50:03;;;;;;;12.43;7.90;;;;;;;;;;4994075;28;20105;-66
2022/07/24 07:52:29;;;;;;;14.15;8.50;;;;;;;;;;4993928;28;20129;-66
2022/07/24 07:54:55;;;;;;;11.02;7.50;;;;;;;;;;4994245;28;20129;-66
2022/07/24 07:57:21;;;;;;;9.18;7.38;;;;;;;;;;4993737;28;20042;-66
2022/07/24 07:59:47;;;;;;;9.52;7.13;;;;;;;;;;4994196;28;20055;-66
2022/07/24 08:02:15;;;;;;;10.15;6.75;;;;;;;;;;4993877;28;20038;-66
2022/07/24 08:04:41;;;;;;;7.28;5.47;;;;;;;;;;4993739;28;20042;-66
2022/07/24 08:07:07;;;;;;;9.90;6.03;;;;;;;;;;4993572;28;20140;-66
2022/07/24 08:09:34;;;;;;;6.70;4.90;;;;;;;;;;4994044;28;20045;-66
2022/07/24 08:12:00;;;;;;;10.88;5.07;;;;;;;;;;4993526;28;20049;-66
2022/07/24 08:14:26;;;;;;;5.28;4.25;;;;;;;;;;4976040;28;20052;-66
2022/07/24 08:16:52;;;;;;;5.53;4.32;;;;;;;;;;4993717;28;20120;-66
2022/07/24 08:19:18;;;;;;;5.45;4.20;;;;;;;;;;4993136;28;20038;-66
2022/07/24 08:21:45;;;;;;;6.13;4.05;;;;;;;;;;4993426;28;20125;-66
2022/07/24 08:24:11;;;;;;;5.75;4.40;;;;;;;;;;4993150;28;20047;-66
2022/07/24 08:26:38;;;;;;;5.00;4.05;;;;;;;;;;4993033;28;20510;-66
2022/07/24 08:29:04;;;;;;;7.50;4.30;;;;;;;;;;4993452;28;20050;-66
2022/07/24 08:31:30;;;;;;;5.13;4.05;;;;;;;;;;4993663;28;20046;-66
2022/07/24 08:33:56;;;;;;;5.57;4.10;;;;;;;;;;4993286;28;20057;-66
2022/07/24 08:36:22;;;;;;;6.15;4.15;;;;;;;;;;4993373;28;20040;-66
2022/07/24 08:38:48;;;;;;;5.80;3.95;;;;;;;;;;4993395;28;20104;-66
2022/07/24 08:41:14;;;;;;;6.10;3.80;;;;;;;;;;4992909;28;20035;-66
2022/07/24 08:43:40;;;;;;;5.45;3.97;;;;;;;;;;4993155;28;20038;-66
2022/07/24 08:46:09;;;;;;;4.00;3.20;;;;;;;;;;4992988;28;20046;-66
2022/07/24 08:48:36;;;;;;;3.80;3.40;;;;;;;;;;4975224;28;20100;-66
2022/07/24 08:51:03;;;;;;;3.13;2.80;;;;;;;;;;4992967;28;20035;-66
2022/07/24 08:53:29;;;;;;;3.47;3.00;;;;;;;;;;4992842;28;20081;-66
2022/07/24 08:55:55;;;;;;;4.43;3.08;;;;;;;;;;4974947;28;20081;-66
2022/07/24 08:58:21;;;;;;;4.57;2.83;;;;;;;;;;4992976;28;20037;-66
2022/07/24 09:00:47;;;;;;;6.28;2.95;;;;;;;;;;4993102;28;20046;-66
2022/07/24 09:03:13;;;;;;;6.10;2.97;;;;;;;;;;4992305;28;20130;-66
2022/07/24 09:05:58;;;;;;;4.35;3.28;;;;;;;;;;4992696;28;20046;-66
2022/07/24 09:08:25;;;;;;;3.80;3.00;;;;;;;;;;4992938;28;20053;-66
2022/07/24 09:11:03;;;;;;;4.35;3.08;;;;;;;;;;4992555;28;20046;-66
2022/07/24 09:14:29;;;;;;;3.95;2.97;;;;;;;;;;4992810;28;20058;-66
2022/07/24 09:16:22;;;;;;;3.88;2.88;;;;;;;;;;4992083;28;20050;-66
2022/07/24 09:19:03;;;;;;;4.45;2.90;;;;;;;;;;4992285;28;20046;-66
2022/07/24 09:21:32;;;;;;;4.00;2.97;;;;;;;;;;4992259;28;20046;-66
2022/07/24 09:24:02;;;;;;;3.40;2.50;;;;;;;;;;4974729;28;20088;-66
2022/07/24 09:26:48;;;;;;;3.33;2.60;;;;;;;;;;4992434;28;20421;-66
2022/07/24 09:29:15;;;;;;;4.18;3.13;;;;;;;;;;4978510;28;20046;-66
2022/07/24 09:32:10;;;;;;;4.45;3.08;;;;;;;;;;4992093;28;20046;-66
2022/07/24 09:34:40;;;;;;;2.97;2.67;;;;;;;;;;4975764;28;20046;-66
2022/07/24 09:37:07;;;;;;;3.42;2.90;;;;;;;;;;4991473;28;20125;-66
2022/07/24 09:39:34;;;;;;;3.40;2.72;;;;;;;;;;4991689;28;20044;-66
2022/07/24 09:42:01;;;;;;;3.65;3.13;;;;;;;;;;4992350;28;20097;-66
2022/07/24 09:44:29;;;;;;;5.50;3.08;;;;;;;;;;4992454;28;20089;-66
2022/07/24 09:46:57;;;;;;;3.10;2.78;;;;;;;;;;4991632;28;20055;-66
2022/07/24 09:49:23;;;;;;;4.88;2.90;;;;;;;;;;4992289;28;20078;-66
2022/07/24 09:52:12;;;;;;;4.88;2.90;;;;;;;;;;4992228;28;20050;-66
2022/07/24 09:54:49;;;;;;;3.92;3.10;;;;;;;;;;4991897;28;20038;-66
2022/07/24 09:57:24;;;;;;;2.78;2.58;;;;;;;;;;4992050;28;20050;-66
2022/07/24 09:59:52;;;;;;;4.00;2.72;;;;;;;;;;4992252;28;20042;-66
2022/07/24 10:02:19;;;;;;;3.28;2.40;;;;;;;;;;4991681;28;20385;-66
2022/07/24 10:04:46;;;;;;;3.95;3.13;;;;;;;;;;4992121;28;20042;-66
2022/07/24 10:07:13;;;;;;;4.18;2.80;;;;;;;;;;4992095;28;20079;-66
2022/07/24 10:09:43;;;;;;;4.20;2.65;;;;;;;;;;4991651;28;20050;-66
2022/07/24 10:12:13;;;;;;;3.15;2.60;;;;;;;;;;4991850;28;20053;-66
2022/07/24 10:14:41;;;;;;;5.15;3.00;;;;;;;;;;4974229;28;20046;-66
2022/07/24 10:17:09;;;;;;;4.57;2.83;;;;;;;;;;4991499;28;20077;-66
2022/07/24 10:19:51;;;;;;;4.22;3.00;;;;;;;;;;4991566;28;20483;-66
2022/07/24 10:22:21;;;;;;;3.20;2.88;;;;;;;;;;4991510;28;20050;-66
2022/07/24 10:24:47;;;;;;;4.30;2.80;;;;;;;;;;4991668;28;20384;-66
2022/07/24 10:27:25;;;;;;;4.82;2.88;;;;;;;;;;4991753;28;20043;-66
2022/07/24 10:29:53;;;;;;;4.60;2.88;;;;;;;;;;4991727;28;20050;-66
2022/07/24 10:32:19;;;;;;;4.97;2.95;;;;;;;;;;4991557;28;20121;-66
2022/07/24 10:34:48;;;;;;;4.72;2.88;;;;;;;;;;4991797;28;20042;-66
2022/07/24 10:37:29;;;;;;;4.68;2.58;;;;;;;;;;4991855;28;20050;-66
2022/07/24 10:40:14;;;;;;;3.05;2.58;;;;;;;;;;4991459;28;20149;-66
2022/07/24 10:42:59;;;;;;;5.65;2.95;;;;;;;;;;4991719;28;20058;-66
2022/07/24 10:45:28;;;;;;;5.20;3.00;;;;;;;;;;4990999;28;20042;-66
2022/07/24 10:47:55;;;;;;;3.13;2.83;;;;;;;;;;4993268;28;20054;-66
2022/07/24 10:50:22;;;;;;;4.40;2.88;;;;;;;;;;4995615;28;20042;-66
2022/07/24 10:52:48;;;;;;;4.70;2.70;;;;;;;;;;4995129;28;20053;-66
2022/07/24 10:55:26;;;;;;;4.97;2.85;;;;;;;;;;4995320;28;20490;-66
2022/07/24 10:57:57;;;;;;;5.97;2.75;;;;;;;;;;4995298;28;20050;-66
2022/07/24 11:00:23;;;;;;;3.42;2.60;;;;;;;;;;4994779;28;20089;-66
2022/07/24 11:02:58;;;;;;;4.53;2.63;;;;;;;;;;4995166;28;20046;-66
2022/07/24 11:05:27;;;;;;;3.30;2.63;;;;;;;;;;4995353;28;20031;-66
2022/07/24 11:08:12;;;;;;;3.25;2.47;;;;;;;;;;4994471;28;20670;-66
2022/07/24 11:10:48;;;;;;;3.28;2.42;;;;;;;;;;4995043;28;20100;-66
2022/07/24 11:13:46;;;;;;;3.58;2.75;;;;;;;;;;4995066;28;20117;-66
2022/07/24 11:16:15;;;;;;;5.88;2.28;;;;;;;;;;4950921;28;20405;-66
2022/07/24 11:18:41;;;;;;;5.82;1.85;;;;;;;;;;4976991;28;20042;-66
2022/07/24 11:21:07;;;;;;;2.95;2.53;;;;;;;;;;4994893;28;20049;-66
2022/07/24 11:23:34;;;;;;;2.53;2.33;;;;;;;;;;4994369;28;20191;-66
2022/07/24 11:26:29;;;;;;;3.00;2.63;;;;;;;;;;4994663;28;20037;-66
2022/07/24 11:29:14;;;;;;;3.58;2.50;;;;;;;;;;4977659;28;20075;-66
2022/07/24 11:31:41;;;;;;;3.03;2.33;;;;;;;;;;4976713;28;20064;-66
2022/07/24 11:34:08;;;;;;;6.80;2.80;;;;;;;;;;4994638;28;20093;-66
2022/07/24 11:36:35;;;;;;;3.78;2.25;;;;;;;;;;4994470;28;20042;-66
2022/07/24 11:39:02;;;;;;;3.15;2.38;;;;;;;;;;4994141;28;20077;-66
2022/07/24 11:41:28;;;;;;;4.32;2.30;;;;;;;;;;4994144;28;20088;-66
2022/07/24 11:43:55;;;;;;;2.95;2.22;;;;;;;;;;4994555;28;20038;-66
2022/07/24 11:46:34;;;;;;;3.25;2.03;;;;;;;;;;4976096;28;20086;-66
2022/07/24 11:49:04;;;;;;;6.32;2.15;;;;;;;;;;4994361;28;20042;-66
2022/07/24 11:51:30;;;;;;;5.18;2.25;;;;;;;;;;4994353;28;20073;-66
2022/07/24 11:53:56;;;;;;;2.75;2.35;;;;;;;;;;4994031;28;20038;-66
2022/07/24 11:56:22;;;;;;;2.63;2.20;;;;;;;;;;4994188;28;20038;-66
2022/07/24 11:58:48;;;;;;;2.97;2.50;;;;;;;;;;4993283;28;20061;-66
2022/07/24 12:01:21;;;;;;;2.65;2.08;;;;;;;;;;4993755;28;20082;-66
2022/07/24 12:03:50;;;;;;;2.45;2.25;;;;;;;;;;4993898;28;20053;-66
2022/07/24 12:06:18;;;;;;;3.55;2.25;;;;;;;;;;4993967;28;20496;-66
2022/07/24 12:08:44;;;;;;;2.08;1.95;;;;;;;;;;4993668;28;20045;-66
2022/07/24 12:11:10;;;;;;;2.58;2.08;;;;;;;;;;4993858;28;20461;-66
2022/07/24 12:13:41;;;;;;;4.80;2.50;;;;;;;;;;4993958;28;20481;-66
2022/07/24 12:16:07;;;;;;;4.55;2.40;;;;;;;;;;4993173;28;20408;-66
2022/07/24 12:18:33;;;;;;;5.55;2.58;;;;;;;;;;4993814;28;20121;-66
2022/07/24 12:21:03;;;;;;;3.58;2.42;;;;;;;;;;4993843;28;20050;-66
2022/07/24 12:23:29;;;;;;;3.92;2.20;;;;;;;;;;4976137;28;20051;-66
2022/07/24 12:25:56;;;;;;;3.90;2.30;;;;;;;;;;4993280;28;20121;-66
2022/07/24 12:28:23;;;;;;;2.55;2.35;;;;;;;;;;4993697;28;20409;-66
2022/07/24 12:30:53;;;;;;;2.60;2.40;;;;;;;;;;4993197;28;20042;-66
2022/07/24 12:33:19;;;;;;;4.13;2.42;;;;;;;;;;4993622;28;20148;-66
2022/07/24 12:35:53;;;;;;;3.42;2.55;;;;;;;;;;4993299;28;20094;-66
2022/07/24 12:38:25;;;;;;;3.10;2.45;;;;;;;;;;4993086;28;20058;-67
2022/07/24 12:40:51;;;;;;;3.65;2.38;;;;;;;;;;4993345;28;20050;-67
2022/07/24 12:43:17;;;;;;;2.92;2.67;;;;;;;;;;4993107;28;20723;-66
2022/07/24 12:45:43;;;;;;;3.15;2.50;;;;;;;;;;4992551;28;20169;-66
2022/07/24 12:48:20;;;;;;;2.63;2.10;;;;;;;;;;4992772;28;20265;-66
2022/07/24 12:51:08;;;;;;;3.53;2.80;;;;;;;;;;4975475;28;20050;-66
2022/07/24 12:53:34;;;;;;;6.00;2.22;;;;;;;;;;4993015;28;20048;-66
2022/07/24 12:56:09;;;;;;;3.90;2.30;;;;;;;;;;4993029;28;20129;-66
2022/07/24 12:58:56;;;;;;;2.90;2.30;;;;;;;;;;4992461;28;20097;-66
2022/07/24 13:01:23;;;;;;;3.47;2.50;;;;;;;;;;4992859;28;20046;-66
2022/07/24 13:03:56;;;;;;;3.50;2.38;;;;;;;;;;4993068;28;20057;-66
2022/07/24 13:06:36;;;;;;;3.10;2.70;;;;;;;;;;4992305;28;20039;-67
2022/07/24 13:09:04;;;;;;;3.15;2.60;;;;;;;;;;4993041;28;20034;-67
2022/07/24 13:11:30;;;;;;;2.72;2.40;;;;;;;;;;4993035;28;20034;-67
2022/07/24 13:13:56;;;;;;;3.63;2.20;;;;;;;;;;4992490;28;20129;-67
2022/07/24 13:16:23;;;;;;;4.57;2.50;;;;;;;;;;4992519;28;20096;-67
2022/07/24 13:18:51;;;;;;;3.97;2.45;;;;;;;;;;4992753;28;20042;-67
2022/07/24 13:21:19;;;;;;;2.53;2.15;;;;;;;;;;4992057;28;20039;-67
2022/07/24 13:23:45;;;;;;;3.03;2.20;;;;;;;;;;4992665;28;20104;-67
2022/07/24 13:26:11;;;;;;;3.58;2.30;;;;;;;;;;4992268;28;20076;-66
2022/07/24 13:28:37;;;;;;;3.08;2.22;;;;;;;;;;4992229;28;20078;-66
2022/07/24 13:31:04;;;;;;;4.28;2.30;;;;;;;;;;4992394;28;20078;-67
2022/07/24 13:33:31;;;;;;;3.17;2.05;;;;;;;;;;4992663;28;20504;-67
2022/07/24 13:35:57;;;;;;;2.40;2.20;;;;;;;;;;4991968;28;20046;-67
2022/07/24 13:38:23;;;;;;;3.28;2.65;;;;;;;;;;4992320;28;20046;-67
2022/07/24 13:40:49;;;;;;;2.40;1.88;;;;;;;;;;4992321;28;20374;-67
2022/07/24 13:43:15;;;;;;;2.38;2.17;;;;;;;;;;4991571;28;20050;-67
2022/07/24 13:45:41;;;;;;;5.07;2.38;;;;;;;;;;4992007;28;20042;-67
2022/07/24 13:48:07;;;;;;;4.13;2.30;;;;;;;;;;4991711;28;20058;-67
2022/07/24 13:50:33;;;;;;;2.83;2.22;;;;;;;;;;4991860;28;20089;-67
2022/07/24 13:52:59;;;;;;;6.35;2.17;;;;;;;;;;4991983;28;20089;-67
2022/07/24 13:55:25;;;;;;;2.85;1.90;;;;;;;;;;4992269;28;20042;-67
2022/07/24 13:57:51;;;;;;;2.03;1.92;;;;;;;;;;4991478;28;20042;-67
2022/07/24 14:00:17;;;;;;;2.78;2.15;;;;;;;;;;4991977;28;20045;-67
2022/07/24 14:02:44;;;;;;;2.25;1.98;;;;;;;;;;4992145;28;20042;-67
2022/07/24 14:05:10;;;;;;;2.50;2.30;;;;;;;;;;4991488;28;20054;-67
2022/07/24 14:07:36;;;;;;;2.63;2.42;;;;;;;;;;4991988;28;20046;-67
2022/07/24 14:10:02;;;;;;;2.63;2.25;;;;;;;;;;4992160;28;20531;-67
2022/07/24 14:12:28;;;;;;;2.03;1.83;;;;;;;;;;4991831;28;20121;-67
2022/07/24 14:14:54;;;;;;;2.85;2.30;;;;;;;;;;4992121;28;20057;-67
2022/07/24 14:17:20;;;;;;;6.30;2.20;;;;;;;;;;4991841;28;20401;-67
2022/07/24 14:19:47;;;;;;;2.47;1.90;;;;;;;;;;4992045;28;20046;-67
2022/07/24 14:22:13;;;;;;;3.95;2.20;;;;;;;;;;4992481;28;20125;-67
2022/07/24 14:24:39;;;;;;;2.33;2.08;;;;;;;;;;4995997;28;20185;-67
2022/07/24 14:27:05;;;;;;;4.53;2.30;;;;;;;;;;4995860;28;20035;-67
2022/07/24 14:29:31;;;;;;;2.03;1.92;;;;;;;;;;4978125;28;20073;-67
2022/07/24 14:31:57;;;;;;;2.83;1.98;;;;;;;;;;4995907;28;20051;-67
2022/07/24 14:34:23;;;;;;;3.83;2.08;;;;;;;;;;4995904;28;20042;-67
2022/07/24 14:36:49;;;;;;;2.30;1.70;;;;;;;;;;4995138;28;20060;-67
2022/07/24 14:39:15;;;;;;;1.90;1.80;;;;;;;;;;4995758;28;20580;-67
2022/07/24 14:41:41;;;;;;;4.35;2.50;;;;;;;;;;4995588;28;20373;-67